Time;durP1;ratioP1;P1;durP2;ratioP2;P2;SDS_P1;SDS_P2;PMS_P1;PMS_P2;Temp;Humidity;BMP_temperature;BMP_pressure;BME280_temperature;BME280_humidity;BME280_pressure;Samples;Min_cycle;Max_cycle;Signal;HPM_P1;HPM_P2
2021/10/12 00:01:21;;;;;;;0.50;0.40;;;;;;;10.03;60.28;100339.23;111432;1195;107484;-76
2021/10/12 00:03:49;;;;;;;0.40;0.40;;;;;;;10.04;60.33;100336.73;111406;1195;137981;-76
2021/10/12 00:06:18;;;;;;;0.40;0.40;;;;;;;10.00;60.48;100338.07;111402;1195;94420;-76
2021/10/12 00:08:46;;;;;;;0.50;0.40;;;;;;;9.92;61.08;100337.74;111358;1195;139192;-76
2021/10/12 00:11:13;;;;;;;0.40;0.40;;;;;;;9.91;61.13;100334.21;111415;1195;107481;-77
2021/10/12 00:13:41;;;;;;;0.40;0.40;;;;;;;9.95;61.50;100328.62;111473;1195;106316;-76
2021/10/12 00:16:10;;;;;;;0.40;0.40;;;;;;;9.88;61.86;100329.15;111300;1195;137576;-76
2021/10/12 00:18:38;;;;;;;0.40;0.40;;;;;;;9.92;61.84;100323.39;111486;1195;94039;-76
2021/10/12 00:21:10;;;;;;;0.50;0.40;;;;;;;9.96;61.83;100320.09;111412;1194;138418;-76
2021/10/12 00:23:38;;;;;;;0.40;0.40;;;;;;;10.00;61.61;100317.68;111504;1195;106232;-76
2021/10/12 00:26:06;;;;;;;0.50;0.40;;;;;;;10.01;61.56;100313.38;111434;1195;94057;-76
2021/10/12 00:28:34;;;;;;;0.40;0.40;;;;;;;10.02;61.47;100307.17;111344;1195;140383;-76
2021/10/12 00:31:03;;;;;;;0.40;0.40;;;;;;;10.03;61.50;100306.77;111481;1195;108225;-76
2021/10/12 00:33:32;;;;;;;0.40;0.40;;;;;;;10.09;61.25;100308.05;111326;1195;138991;-75
2021/10/12 00:36:00;;;;;;;0.40;0.40;;;;;;;10.11;61.13;100304.63;111526;1195;94399;-75
2021/10/12 00:38:28;;;;;;;0.50;0.40;;;;;;;10.05;61.34;100305.84;111424;1195;138972;-76
2021/10/12 00:40:56;;;;;;;0.40;0.40;;;;;;;10.04;61.36;100302.84;111421;1195;107570;-75
2021/10/12 00:43:27;;;;;;;0.50;0.40;;;;;;;10.02;61.34;100301.29;114674;1195;105803;-76
2021/10/12 00:45:58;;;;;;;0.40;0.40;;;;;;;10.02;61.30;100296.35;113951;1195;137373;-75
2021/10/12 00:48:27;;;;;;;0.50;0.40;;;;;;;10.00;61.28;100295.14;114734;1195;92451;-76
2021/10/12 00:50:54;;;;;;;0.40;0.40;;;;;;;9.98;61.41;100292.35;112037;1195;137546;-74
2021/10/12 00:53:22;;;;;;;0.40;0.30;;;;;;;10.00;61.49;100291.95;111491;1195;105660;-75
2021/10/12 00:55:50;;;;;;;0.40;0.30;;;;;;;9.98;61.45;100297.67;111479;1195;94502;-75
2021/10/12 00:58:18;;;;;;;0.50;0.40;;;;;;;9.93;61.55;100293.37;111201;1195;137052;-76
2021/10/12 01:00:49;;;;;;;0.40;0.40;;;;;;;9.90;61.63;100290.61;111768;1195;108075;-79
2021/10/12 01:03:17;;;;;;;0.50;0.40;;;;;;;9.92;61.89;100289.15;111849;1197;137743;-79
2021/10/12 01:05:46;;;;;;;0.40;0.40;;;;;;;9.90;61.99;100286.35;112064;1195;94264;-79
2021/10/12 01:08:14;;;;;;;0.50;0.40;;;;;;;9.83;62.03;100280.51;112088;1195;94268;-78
2021/10/12 01:10:41;;;;;;;0.40;0.40;;;;;;;9.81;61.90;100273.27;111695;1195;136840;-79
2021/10/12 01:13:10;;;;;;;0.40;0.40;;;;;;;9.85;62.24;100268.20;112179;1195;108100;-79
2021/10/12 01:15:39;;;;;;;0.40;0.40;;;;;;;9.88;61.92;100267.61;112474;1195;137922;-79
2021/10/12 01:18:11;;;;;;;0.50;0.50;;;;;;;9.92;62.19;100268.05;112223;1195;94771;-79
2021/10/12 01:20:40;;;;;;;0.40;0.40;;;;;;;9.90;62.24;100266.34;111842;1195;137917;-79
2021/10/12 01:23:09;;;;;;;0.40;0.40;;;;;;;9.89;62.56;100267.03;111844;1195;108141;-79
2021/10/12 01:25:38;;;;;;;0.40;0.40;;;;;;;9.92;62.58;100269.46;112197;1194;94497;-79
2021/10/12 01:28:08;;;;;;;0.40;0.30;;;;;;;9.92;62.55;100265.90;112047;1195;137094;-79
2021/10/12 01:30:37;;;;;;;0.50;0.40;;;;;;;9.95;62.48;100263.52;111926;1195;107329;-79
2021/10/12 01:33:09;;;;;;;0.40;0.40;;;;;;;9.91;62.88;100258.31;111828;1195;137286;-79
2021/10/12 01:35:37;;;;;;;0.50;0.40;;;;;;;9.82;63.32;100255.34;113598;1195;94055;-78
2021/10/12 01:38:05;;;;;;;0.40;0.30;;;;;;;9.82;63.42;100254.98;111912;1194;94124;-79
2021/10/12 01:40:33;;;;;;;0.40;0.40;;;;;;;9.82;63.64;100252.86;111812;1195;137621;-78
2021/10/12 01:43:01;;;;;;;0.40;0.40;;;;;;;9.83;63.50;100250.54;111961;1195;107345;-78
2021/10/12 01:45:30;;;;;;;0.40;0.40;;;;;;;9.87;63.61;100247.23;112476;1195;138871;-79
2021/10/12 01:47:58;;;;;;;0.40;0.40;;;;;;;9.85;63.63;100246.41;112637;1195;95180;-79
2021/10/12 01:50:26;;;;;;;0.40;0.40;;;;;;;9.76;64.06;100240.23;111828;1195;137592;-79
2021/10/12 01:52:53;;;;;;;0.40;0.30;;;;;;;9.74;64.34;100239.41;112006;1195;107052;-79
2021/10/12 01:55:23;;;;;;;0.40;0.30;;;;;;;9.77;64.42;100239.70;112017;1195;94253;-79
2021/10/12 01:57:51;;;;;;;0.40;0.30;;;;;;;9.82;64.09;100233.52;114694;1194;137614;-79
2021/10/12 02:00:19;;;;;;;0.50;0.40;;;;;;;9.82;64.23;100230.16;114800;1195;107490;-79
2021/10/12 02:02:46;;;;;;;0.40;0.30;;;;;;;9.87;64.07;100231.63;114708;1195;138561;-79
2021/10/12 02:05:15;;;;;;;0.40;0.30;;;;;;;9.90;63.79;100231.72;111777;1195;94039;-75
2021/10/12 02:07:42;;;;;;;0.40;0.30;;;;;;;9.91;63.87;100231.17;111465;1195;93998;-74
2021/10/12 02:10:10;;;;;;;0.40;0.40;;;;;;;9.89;64.00;100231.41;111303;1195;137020;-75
2021/10/12 02:12:38;;;;;;;0.50;0.40;;;;;;;9.93;64.30;100227.05;111434;1195;108287;-76
2021/10/12 02:15:07;;;;;;;0.40;0.30;;;;;;;9.91;64.42;100220.72;111393;1195;138112;-76
2021/10/12 02:17:35;;;;;;;0.40;0.30;;;;;;;9.87;64.93;100216.36;111450;1195;94373;-76
2021/10/12 02:20:04;;;;;;;0.40;0.30;;;;;;;9.82;65.10;100214.22;111385;1196;107691;-77
2021/10/12 02:22:33;;;;;;;0.40;0.40;;;;;;;9.70;65.88;100214.34;113640;1195;138143;-77
2021/10/12 02:25:02;;;;;;;0.40;0.30;;;;;;;9.64;66.16;100210.61;111435;1195;94282;-76
2021/10/12 02:27:30;;;;;;;0.40;0.30;;;;;;;9.69;66.12;100214.89;111263;1194;136248;-76
2021/10/12 02:29:58;;;;;;;0.40;0.40;;;;;;;9.73;66.12;100208.41;111416;1195;107504;-76
2021/10/12 02:32:26;;;;;;;0.50;0.40;;;;;;;9.75;66.32;100212.44;111529;1193;137983;-76
2021/10/12 02:34:53;;;;;;;0.40;0.30;;;;;;;9.73;66.43;100214.25;111710;1193;93898;-77
2021/10/12 02:37:21;;;;;;;0.40;0.30;;;;;;;9.69;66.85;100213.65;111892;1193;94810;-81
2021/10/12 02:39:49;;;;;;;0.40;0.30;;;;;;;9.60;67.66;100214.41;111921;1195;137046;-77
2021/10/12 02:42:17;;;;;;;0.40;0.30;;;;;;;9.51;67.84;100213.38;111664;1193;107948;-79
2021/10/12 02:44:46;;;;;;;0.40;0.30;;;;;;;9.48;68.05;100210.45;111526;1193;138912;-75
2021/10/12 02:47:14;;;;;;;0.40;0.30;;;;;;;9.57;67.69;100210.61;111549;1195;94248;-76
2021/10/12 02:49:42;;;;;;;0.40;0.40;;;;;;;9.61;67.77;100214.05;111555;1195;107187;-76
2021/10/12 02:52:09;;;;;;;0.40;0.30;;;;;;;9.62;67.62;100215.62;111324;1195;137997;-76
2021/10/12 02:54:37;;;;;;;0.40;0.30;;;;;;;9.62;67.82;100218.80;111682;1193;94915;-77
2021/10/12 02:57:05;;;;;;;0.40;0.30;;;;;;;9.55;67.86;100219.50;111522;1193;138255;-77
2021/10/12 02:59:33;;;;;;;0.40;0.40;;;;;;;9.49;68.25;100218.24;111727;1193;107488;-75
2021/10/12 03:02:01;;;;;;;0.50;0.40;;;;;;;9.43;68.39;100217.13;111634;1195;108177;-79
2021/10/12 03:04:29;;;;;;;0.40;0.30;;;;;;;9.37;68.51;100211.62;111540;1193;138718;-77
2021/10/12 03:06:57;;;;;;;0.40;0.30;;;;;;;9.38;68.57;100206.96;111594;1195;94008;-76
2021/10/12 03:09:24;;;;;;;0.40;0.30;;;;;;;9.45;68.55;100211.09;111406;1195;137105;-77
2021/10/12 03:11:52;;;;;;;0.40;0.40;;;;;;;9.37;68.69;100209.14;111744;1193;108218;-76
2021/10/12 03:14:20;;;;;;;0.40;0.40;;;;;;;9.33;68.94;100203.91;111611;1195;94475;-77
2021/10/12 03:16:48;;;;;;;0.40;0.30;;;;;;;9.39;69.05;100203.42;111461;1193;137321;-77
2021/10/12 03:19:17;;;;;;;0.40;0.30;;;;;;;9.44;68.79;100199.03;111516;1195;107341;-77
2021/10/12 03:21:58;;;;;;;0.40;0.40;;;;;;;9.50;68.61;100200.49;111549;1193;137607;-76
2021/10/12 03:24:26;;;;;;;0.40;0.40;;;;;;;9.60;68.60;100200.60;111642;1193;93976;-76
2021/10/12 03:26:53;;;;;;;0.40;0.40;;;;;;;9.68;68.37;100194.02;111550;1193;138269;-76
2021/10/12 03:29:21;;;;;;;0.40;0.30;;;;;;;9.83;67.90;100191.48;111546;1193;107673;-76
2021/10/12 03:31:49;;;;;;;0.40;0.30;;;;;;;9.93;67.42;100189.61;111545;1194;107163;-76
2021/10/12 03:34:17;;;;;;;0.50;0.40;;;;;;;9.95;67.44;100187.80;111408;1193;138069;-76
2021/10/12 03:36:45;;;;;;;0.40;0.40;;;;;;;9.95;67.46;100184.95;111555;1195;94944;-76
2021/10/12 03:39:13;;;;;;;0.40;0.30;;;;;;;9.96;67.64;100185.65;111474;1193;137544;-76
2021/10/12 03:41:41;;;;;;;0.40;0.30;;;;;;;9.92;67.79;100178.50;114816;1193;107454;-77
2021/10/12 03:44:09;;;;;;;0.40;0.30;;;;;;;9.92;67.69;100174.95;114835;1193;92200;-76
2021/10/12 03:46:37;;;;;;;0.40;0.40;;;;;;;9.96;67.78;100171.64;114737;1193;138010;-77
2021/10/12 03:49:05;;;;;;;0.40;0.30;;;;;;;10.02;67.57;100169.15;111659;1193;107552;-76
2021/10/12 03:51:33;;;;;;;0.40;0.30;;;;;;;10.12;67.40;100167.27;111488;1194;137633;-76
2021/10/12 03:54:00;;;;;;;0.40;0.30;;;;;;;10.12;67.38;100166.39;111703;1193;94148;-78
2021/10/12 03:56:28;;;;;;;0.40;0.40;;;;;;;10.06;67.59;100169.76;111549;1193;138475;-76
2021/10/12 03:58:56;;;;;;;0.40;0.30;;;;;;;10.07;67.66;100163.36;111555;1194;109804;-77
2021/10/12 04:01:24;;;;;;;0.40;0.30;;;;;;;10.09;67.57;100166.48;111584;1194;107135;-76
2021/10/12 04:03:53;;;;;;;0.40;0.30;;;;;;;10.06;67.67;100162.50;111479;1195;138874;-75
2021/10/12 04:06:21;;;;;;;0.40;0.40;;;;;;;10.05;67.75;100161.64;111616;1195;94306;-75
2021/10/12 04:08:49;;;;;;;0.40;0.30;;;;;;;10.11;67.73;100162.52;111361;1195;138483;-75
2021/10/12 04:11:17;;;;;;;0.40;0.30;;;;;;;10.12;67.85;100161.44;111570;1195;108196;-75
2021/10/12 04:13:45;;;;;;;0.40;0.30;;;;;;;10.07;67.92;100162.45;113786;1195;93972;-75
2021/10/12 04:16:13;;;;;;;0.40;0.40;;;;;;;10.12;67.96;100155.58;111422;1195;137841;-75
2021/10/12 04:18:40;;;;;;;0.40;0.30;;;;;;;10.12;68.09;100152.58;111589;1194;108645;-75
2021/10/12 04:21:09;;;;;;;0.40;0.30;;;;;;;10.17;67.94;100147.60;111342;1195;139115;-76
2021/10/12 04:23:38;;;;;;;0.40;0.30;;;;;;;10.17;67.98;100144.24;111747;1193;93924;-76
2021/10/12 04:26:09;;;;;;;0.40;0.30;;;;;;;10.10;68.19;100146.22;111528;1195;94518;-78
2021/10/12 04:28:40;;;;;;;0.40;0.40;;;;;;;10.14;68.37;100146.28;111387;1195;137450;-76
2021/10/12 04:31:08;;;;;;;0.40;0.30;;;;;;;10.18;68.22;100146.36;111630;1194;107082;-76
2021/10/12 04:33:35;;;;;;;0.40;0.30;;;;;;;10.28;68.12;100140.40;111431;1193;138534;-76
2021/10/12 04:36:03;;;;;;;0.40;0.30;;;;;;;10.30;68.07;100139.27;111795;1193;94581;-76
2021/10/12 04:38:31;;;;;;;0.40;0.30;;;;;;;10.19;68.39;100135.31;111490;1193;136933;-76
2021/10/12 04:40:59;;;;;;;0.40;0.40;;;;;;;10.30;68.47;100133.23;111785;1193;107705;-76
2021/10/12 04:43:27;;;;;;;0.40;0.30;;;;;;;10.33;68.50;100130.51;111700;1195;94541;-75
2021/10/12 04:45:55;;;;;;;0.40;0.30;;;;;;;10.34;68.39;100117.52;111601;1193;138004;-75
2021/10/12 04:48:22;;;;;;;0.40;0.30;;;;;;;10.39;68.40;100120.44;111713;1194;108164;-76
2021/10/12 04:50:51;;;;;;;0.40;0.30;;;;;;;10.41;68.43;100119.28;111558;1194;138605;-75
2021/10/12 04:53:19;;;;;;;0.40;0.30;;;;;;;10.39;68.39;100116.67;111711;1193;94061;-75
2021/10/12 04:55:48;;;;;;;0.40;0.30;;;;;;;10.44;68.40;100114.58;111698;1193;93983;-75
2021/10/12 04:58:16;;;;;;;0.40;0.30;;;;;;;10.45;68.41;100119.34;114168;1193;137983;-76
2021/10/12 05:00:44;;;;;;;0.40;0.30;;;;;;;10.45;68.51;100115.27;111742;1193;108091;-75
2021/10/12 05:03:12;;;;;;;0.40;0.30;;;;;;;10.44;68.59;100118.30;111618;1193;137927;-75
2021/10/12 05:05:40;;;;;;;0.40;0.30;;;;;;;10.45;68.64;100116.14;111686;1193;94015;-74
2021/10/12 05:08:08;;;;;;;0.40;0.30;;;;;;;10.44;68.83;100114.77;111828;1194;107577;-76
2021/10/12 05:10:37;;;;;;;0.40;0.30;;;;;;;10.35;69.12;100109.50;111587;1193;137488;-76
2021/10/12 05:13:06;;;;;;;0.40;0.30;;;;;;;10.37;69.12;100111.24;111681;1195;94909;-76
2021/10/12 05:15:36;;;;;;;0.40;0.30;;;;;;;10.32;69.23;100108.67;111696;1193;138386;-74
2021/10/12 05:18:10;;;;;;;0.40;0.30;;;;;;;10.34;69.26;100116.62;111802;1193;108528;-75
2021/10/12 05:20:38;;;;;;;0.40;0.30;;;;;;;10.40;69.44;100115.23;111689;1193;138444;-75
2021/10/12 05:23:06;;;;;;;0.40;0.30;;;;;;;10.50;69.04;100113.67;111828;1193;94036;-72
2021/10/12 05:25:36;;;;;;;0.40;0.30;;;;;;;10.56;68.95;100117.95;114888;1192;92168;-75
2021/10/12 05:28:04;;;;;;;0.40;0.30;;;;;;;10.57;68.92;100110.83;114732;1193;138676;-77
2021/10/12 05:30:39;;;;;;;0.40;0.30;;;;;;;10.61;68.78;100111.05;114836;1193;108142;-75
2021/10/12 05:33:10;;;;;;;0.40;0.30;;;;;;;10.63;68.70;100108.51;113734;1193;138456;-76
2021/10/12 05:35:38;;;;;;;0.40;0.30;;;;;;;10.69;68.66;100110.59;111636;1195;94608;-75
2021/10/12 05:38:11;;;;;;;0.40;0.30;;;;;;;10.70;68.61;100106.33;111647;1193;110022;-75
2021/10/12 05:40:41;;;;;;;0.40;0.30;;;;;;;10.70;68.49;100104.71;111534;1193;138305;-75
2021/10/12 05:43:09;;;;;;;0.40;0.30;;;;;;;10.67;68.49;100108.00;111631;1193;94021;-74
2021/10/12 05:45:37;;;;;;;0.40;0.30;;;;;;;10.65;68.63;100103.27;111426;1193;137844;-75
2021/10/12 05:48:07;;;;;;;0.40;0.30;;;;;;;10.63;68.78;100106.54;111537;1193;108397;-75
2021/10/12 05:50:36;;;;;;;0.40;0.30;;;;;;;10.61;68.86;100106.63;111438;1193;138049;-78
2021/10/12 05:56:15;;;;;;;0.40;0.30;;;;;;;10.46;69.22;100110.79;111708;1193;94472;-74
2021/10/12 05:58:45;;;;;;;0.40;0.30;;;;;;;10.55;69.35;100109.10;111484;1193;138025;-75
2021/10/12 06:01:13;;;;;;;0.40;0.30;;;;;;;10.60;69.31;100103.98;111669;1193;108257;-74
2021/10/12 06:03:41;;;;;;;0.40;0.30;;;;;;;10.69;69.21;100106.17;111571;1193;138276;-74
2021/10/12 06:06:11;;;;;;;0.40;0.30;;;;;;;10.78;68.91;100110.15;111608;1195;94502;-75
2021/10/12 06:08:40;;;;;;;0.40;0.30;;;;;;;10.82;68.87;100112.34;111838;1193;137959;-75
2021/10/12 06:11:09;;;;;;;0.40;0.30;;;;;;;10.88;68.79;100108.77;111635;1195;107601;-76
2021/10/12 06:13:39;;;;;;;0.40;0.30;;;;;;;10.84;68.72;100112.26;111597;1193;93974;-74
2021/10/12 06:16:07;;;;;;;0.40;0.30;;;;;;;10.89;68.60;100117.44;112127;1193;138936;-78
2021/10/12 06:18:36;;;;;;;0.40;0.30;;;;;;;10.89;68.61;100116.02;111789;1194;107563;-76
2021/10/12 06:21:03;;;;;;;0.40;0.30;;;;;;;10.88;68.69;100117.64;111475;1193;137704;-75
2021/10/12 06:23:31;;;;;;;0.40;0.30;;;;;;;10.86;68.65;100118.79;111449;1194;94114;-75
2021/10/12 06:25:59;;;;;;;0.40;0.30;;;;;;;10.84;68.74;100115.65;111592;1193;94432;-75
2021/10/12 06:28:28;;;;;;;0.40;0.30;;;;;;;10.86;68.94;100121.07;111577;1193;137673;-76
2021/10/12 06:30:56;;;;;;;0.40;0.30;;;;;;;10.91;68.83;100121.81;111583;1195;107625;-76
2021/10/12 06:33:24;;;;;;;0.40;0.30;;;;;;;10.94;68.48;100121.89;111514;1194;137672;-75
2021/10/12 06:35:52;;;;;;;0.40;0.30;;;;;;;10.94;68.41;100120.66;111569;1193;93976;-75
2021/10/12 06:38:20;;;;;;;0.40;0.30;;;;;;;10.94;68.34;100122.09;111585;1193;107603;-76
2021/10/12 06:40:48;;;;;;;0.40;0.30;;;;;;;11.03;68.05;100123.73;111468;1197;138494;-75
2021/10/12 06:43:16;;;;;;;0.40;0.30;;;;;;;10.94;68.11;100125.98;111434;1194;94014;-74
2021/10/12 06:45:44;;;;;;;0.40;0.30;;;;;;;11.05;68.18;100123.67;111418;1195;138526;-75
2021/10/12 06:48:12;;;;;;;0.40;0.30;;;;;;;11.21;67.72;100126.71;111432;1195;108008;-76
2021/10/12 06:50:40;;;;;;;0.40;0.30;;;;;;;11.22;66.95;100126.85;111498;1195;138277;-77
2021/10/12 06:53:08;;;;;;;0.40;0.30;;;;;;;11.19;67.12;100131.02;111731;1194;96043;-77
2021/10/12 06:55:35;;;;;;;0.40;0.30;;;;;;;11.20;67.26;100129.38;111463;1194;95558;-76
2021/10/12 06:58:03;;;;;;;0.40;0.30;;;;;;;11.17;67.41;100127.55;111591;1193;140315;-76
2021/10/12 07:00:31;;;;;;;0.40;0.30;;;;;;;11.14;67.43;100129.61;111643;1194;106934;-75
2021/10/12 07:02:59;;;;;;;0.40;0.20;;;;;;;11.10;67.38;100128.13;111589;1193;137465;-74
2021/10/12 07:05:27;;;;;;;0.40;0.30;;;;;;;11.16;67.65;100129.69;111674;1193;94447;-77
2021/10/12 07:07:55;;;;;;;0.40;0.30;;;;;;;11.20;67.24;100133.15;111430;1195;108192;-76
2021/10/12 07:10:22;;;;;;;0.40;0.30;;;;;;;11.27;67.34;100135.75;111498;1193;139474;-75
2021/10/12 07:12:52;;;;;;;0.40;0.30;;;;;;;11.38;67.19;100134.48;111767;1194;95799;-78
2021/10/12 07:15:20;;;;;;;0.40;0.30;;;;;;;11.39;66.81;100137.47;111839;1193;139080;-77
2021/10/12 07:17:48;;;;;;;0.40;0.30;;;;;;;11.40;66.62;100137.80;111506;1193;107600;-76
2021/10/12 07:20:16;;;;;;;0.40;0.30;;;;;;;11.49;66.51;100135.20;111637;1193;107927;-75
2021/10/12 07:22:43;;;;;;;0.40;0.20;;;;;;;11.55;66.37;100135.86;111560;1193;138095;-78
2021/10/12 07:25:11;;;;;;;0.40;0.30;;;;;;;11.55;66.01;100137.12;111698;1193;94045;-78
2021/10/12 07:27:39;;;;;;;0.40;0.30;;;;;;;11.46;65.75;100137.76;111479;1193;138021;-74
2021/10/12 07:30:19;;;;;;;0.40;0.30;;;;;;;11.56;65.80;100132.83;111645;1194;108416;-76
2021/10/12 07:32:47;;;;;;;0.40;0.30;;;;;;;11.56;64.10;100134.23;111641;1193;137832;-76
2021/10/12 07:35:15;;;;;;;0.40;0.30;;;;;;;11.44;62.71;100129.14;111616;1193;94009;-76
2021/10/12 07:37:43;;;;;;;0.40;0.30;;;;;;;11.38;63.29;100128.10;111593;1193;107528;-76
2021/10/12 07:40:12;;;;;;;0.40;0.30;;;;;;;11.41;63.58;100127.30;111596;1193;137772;-78
2021/10/12 07:42:40;;;;;;;0.40;0.30;;;;;;;11.49;63.90;100128.60;111872;1195;95670;-78
2021/10/12 07:45:09;;;;;;;0.40;0.30;;;;;;;11.50;64.02;100125.91;111537;1193;137544;-75
2021/10/12 07:47:36;;;;;;;0.40;0.30;;;;;;;11.48;64.06;100125.95;111730;1193;108084;-76
2021/10/12 07:50:06;;;;;;;0.40;0.30;;;;;;;11.46;64.12;100122.30;111748;1193;106106;-77
2021/10/12 07:52:35;;;;;;;0.40;0.30;;;;;;;11.50;64.27;100124.11;111760;1193;137106;-77
2021/10/12 07:57:35;;;;;;;0.40;0.30;;;;;;;11.71;64.01;100124.46;111507;1200;137348;-77
2021/10/12 08:00:04;;;;;;;0.40;0.30;;;;;;;11.75;63.32;100128.25;111673;1193;107080;-77
2021/10/12 08:02:38;;;;;;;0.40;0.30;;;;;;;11.67;62.24;100131.87;111508;1193;138179;-76
2021/10/12 08:05:07;;;;;;;0.40;0.30;;;;;;;11.63;61.91;100128.30;111796;1193;93952;-76
2021/10/12 08:07:35;;;;;;;0.40;0.30;;;;;;;11.64;61.89;100125.41;111689;1193;109068;-77
2021/10/12 08:10:13;;;;;;;0.40;0.30;;;;;;;11.56;61.47;100124.09;111578;1193;138263;-78
2021/10/12 08:12:42;;;;;;;0.40;0.30;;;;;;;11.48;61.37;100124.02;111764;1193;93999;-76
2021/10/12 08:15:11;;;;;;;0.40;0.30;;;;;;;11.42;61.10;100122.29;112491;1193;137757;-76
2021/10/12 08:17:39;;;;;;;0.40;0.30;;;;;;;11.38;61.18;100124.17;111637;1193;107586;-76
2021/10/12 08:20:07;;;;;;;0.40;0.30;;;;;;;11.36;61.51;100116.96;111509;1193;107305;-76
2021/10/12 08:22:35;;;;;;;0.40;0.40;;;;;;;11.43;61.47;100115.85;111708;1193;137922;-77
2021/10/12 08:25:08;;;;;;;0.40;0.30;;;;;;;11.43;61.22;100112.45;111694;1193;94414;-76
2021/10/12 08:27:36;;;;;;;0.40;0.30;;;;;;;11.52;61.36;100110.89;111637;1193;136997;-76
2021/10/12 08:30:05;;;;;;;0.40;0.30;;;;;;;11.57;60.98;100108.77;111616;1193;108225;-75
2021/10/12 08:32:33;;;;;;;0.40;0.40;;;;;;;11.65;60.76;100107.59;111538;1193;137876;-76
2021/10/12 08:35:01;;;;;;;0.40;0.30;;;;;;;11.62;60.49;100108.96;111585;1193;94315;-76
2021/10/12 08:37:29;;;;;;;0.40;0.30;;;;;;;11.67;60.32;100103.23;111756;1193;107655;-77
2021/10/12 08:39:57;;;;;;;0.40;0.30;;;;;;;11.69;59.56;100102.67;111699;1193;138624;-76
2021/10/12 08:42:27;;;;;;;0.40;0.20;;;;;;;11.69;59.19;100101.23;113123;1193;94066;-77
2021/10/12 08:45:00;;;;;;;0.40;0.20;;;;;;;11.69;58.42;100102.83;111752;1193;137312;-76
2021/10/12 08:47:29;;;;;;;0.40;0.30;;;;;;;11.77;58.12;100096.34;114889;1193;108507;-77
2021/10/12 08:50:08;;;;;;;0.40;0.30;;;;;;;11.82;58.35;100092.22;113365;1193;107142;-79
2021/10/12 08:52:36;;;;;;;0.40;0.20;;;;;;;11.91;57.64;100093.52;111748;1194;138125;-79
2021/10/12 08:55:04;;;;;;;0.40;0.20;;;;;;;11.99;57.14;100093.77;111858;1193;94409;-78
2021/10/12 08:57:37;;;;;;;0.40;0.30;;;;;;;12.00;57.48;100092.13;111606;1195;137252;-77
2021/10/12 09:00:09;;;;;;;0.40;0.30;;;;;;;12.03;57.01;100094.16;114947;1193;108111;-79
2021/10/12 09:03:16;;;;;;;0.40;0.30;;;;;;;11.98;56.80;100092.92;113773;1193;138144;-77
2021/10/12 09:06:02;;;;;;;0.40;0.30;;;;;;;11.97;56.86;100091.73;111615;1195;95943;-77
2021/10/12 09:08:39;;;;;;;0.40;0.30;;;;;;;12.05;57.21;100093.02;114750;1193;137636;-78
2021/10/12 09:11:20;;;;;;;0.40;0.30;;;;;;;12.13;56.84;100091.64;112679;1193;107108;-77
2021/10/12 09:13:53;;;;;;;0.40;0.30;;;;;;;12.18;56.89;100089.52;111652;1193;94342;-76
2021/10/12 09:16:22;;;;;;;0.40;0.20;;;;;;;12.32;56.68;100088.98;114798;1193;137092;-78
2021/10/12 09:18:52;;;;;;;0.40;0.30;;;;;;;12.34;56.16;100087.83;113674;1193;108864;-76
2021/10/12 09:21:40;;;;;;;0.40;0.30;;;;;;;12.35;55.79;100084.40;111492;1194;137695;-76
2021/10/12 09:24:10;;;;;;;0.40;0.30;;;;;;;12.33;55.72;100083.77;111767;1194;94000;-77
2021/10/12 09:26:40;;;;;;;0.40;0.30;;;;;;;12.28;55.77;100085.60;111637;1193;137197;-76
2021/10/12 09:29:29;;;;;;;0.40;0.30;;;;;;;12.21;55.85;100081.58;111417;1196;107554;-77
2021/10/12 09:32:04;;;;;;;0.40;0.30;;;;;;;12.12;56.14;100078.89;111986;1193;107113;-76
2021/10/12 09:34:32;;;;;;;0.40;0.30;;;;;;;12.11;56.08;100078.58;114792;1193;139285;-77
2021/10/12 09:37:01;;;;;;;0.40;0.30;;;;;;;12.15;56.25;100080.74;112393;1193;93935;-77
2021/10/12 09:39:38;;;;;;;0.40;0.30;;;;;;;12.11;56.54;100080.02;111688;1193;137693;-76
2021/10/12 09:42:07;;;;;;;0.40;0.30;;;;;;;12.14;56.59;100078.63;112882;1193;107874;-76
2021/10/12 09:44:51;;;;;;;0.40;0.30;;;;;;;12.32;56.42;100073.69;112813;1193;137696;-76
2021/10/12 09:47:19;;;;;;;0.40;0.30;;;;;;;12.40;56.28;100064.64;111790;1193;94074;-81
2021/10/12 09:49:48;;;;;;;0.40;0.30;;;;;;;12.68;55.79;100059.77;112472;1193;107565;-76
2021/10/12 09:52:20;;;;;;;0.40;0.20;;;;;;;14.78;51.52;100057.80;111636;1194;139738;-78
2021/10/12 09:54:52;;;;;;;0.40;0.20;;;;;;;15.80;48.12;100055.13;111933;1193;94560;-78
2021/10/12 09:57:23;;;;;;;0.40;0.20;;;;;;;16.33;46.71;100051.92;111874;1193;138533;-77
2021/10/12 09:59:51;;;;;;;0.40;0.10;;;;;;;17.79;44.63;100046.09;111788;1194;108018;-77
2021/10/12 10:02:25;;;;;;;0.40;0.10;;;;;;;17.53;44.63;100037.98;111634;1193;105588;-77
2021/10/12 10:04:54;;;;;;;0.40;0.10;;;;;;;16.89;44.40;100033.52;111945;1195;139201;-77
2021/10/12 10:07:38;;;;;;;0.40;0.10;;;;;;;16.07;45.02;100038.46;111896;1193;94160;-77
2021/10/12 10:10:06;;;;;;;0.40;0.20;;;;;;;15.46;46.13;100045.08;111443;1193;137700;-77
2021/10/12 10:12:35;;;;;;;0.40;0.20;;;;;;;15.48;47.13;100043.89;111664;1193;108915;-78
2021/10/12 10:15:03;;;;;;;0.40;0.10;;;;;;;16.13;46.14;100043.17;112170;1193;138311;-76
2021/10/12 10:17:31;;;;;;;0.40;0.10;;;;;;;16.99;43.95;100034.57;111809;1193;94869;-77
2021/10/12 10:20:03;;;;;;;0.40;0.10;;;;;;;16.58;44.54;100030.58;111888;1193;107405;-79
2021/10/12 10:22:39;;;;;;;0.40;0.10;;;;;;;16.30;44.25;100028.77;111677;1197;137795;-77
2021/10/12 10:25:34;;;;;;;0.40;0.10;;;;;;;15.68;44.58;100028.91;111969;1193;94481;-80
2021/10/12 10:28:18;;;;;;;0.40;0.10;;;;;;;15.39;45.18;100028.28;113064;1193;137850;-77
2021/10/12 10:30:48;;;;;;;0.40;0.10;;;;;;;15.18;45.63;100022.58;111870;1193;108906;-77
2021/10/12 10:33:30;;;;;;;0.40;0.20;;;;;;;15.06;45.87;100016.92;111714;1193;137793;-77
2021/10/12 10:36:06;;;;;;;0.40;0.20;;;;;;;14.90;45.87;100015.38;111961;1192;93964;-78
2021/10/12 10:38:43;;;;;;;0.40;0.20;;;;;;;14.58;44.57;100009.29;111827;1193;137566;-78
2021/10/12 10:41:11;;;;;;;0.40;0.20;;;;;;;14.24;45.18;100008.74;112176;1193;106726;-80
2021/10/12 10:43:51;;;;;;;0.40;0.20;;;;;;;14.13;46.06;100001.08;111987;1193;105758;-81
2021/10/12 10:46:31;;;;;;;0.40;0.20;;;;;;;14.05;45.99;99996.59;112442;1193;136369;-78
2021/10/12 10:49:23;;;;;;;0.40;0.20;;;;;;;13.88;45.88;99995.25;112949;1193;94258;-78
2021/10/12 10:51:56;;;;;;;0.40;0.20;;;;;;;13.87;46.47;99993.89;112184;1193;138123;-79
2021/10/12 10:54:42;;;;;;;0.40;0.20;;;;;;;13.92;46.65;99991.36;111874;1193;107043;-78
2021/10/12 10:57:15;;;;;;;0.40;0.20;;;;;;;14.04;46.69;99996.50;111915;1193;138980;-77
2021/10/12 11:00:08;;;;;;;0.40;0.20;;;;;;;14.07;46.31;99996.37;112696;1193;93903;-78
2021/10/12 11:02:43;;;;;;;0.40;0.20;;;;;;;14.05;46.52;99992.88;111792;1193;137570;-78
2021/10/12 11:05:38;;;;;;;0.40;0.20;;;;;;;14.04;46.65;99994.86;112083;1193;107689;-79
2021/10/12 11:08:06;;;;;;;0.40;0.20;;;;;;;13.97;46.45;99995.21;111873;1193;94156;-78
2021/10/12 11:10:40;;;;;;;0.40;0.20;;;;;;;13.86;46.87;99992.86;111722;1193;138145;-78
2021/10/12 11:13:08;;;;;;;0.40;0.20;;;;;;;13.78;47.60;99996.63;111943;1193;107621;-79
2021/10/12 11:15:47;;;;;;;0.40;0.20;;;;;;;13.70;47.70;99990.92;111758;1193;138000;-75
2021/10/12 11:18:16;;;;;;;0.40;0.20;;;;;;;13.56;47.11;99987.79;111757;1194;94934;-78
2021/10/12 11:20:48;;;;;;;0.40;0.20;;;;;;;13.47;47.66;99987.48;111670;1193;137390;-77
2021/10/12 11:23:35;;;;;;;0.40;0.20;;;;;;;13.54;47.80;99984.86;111651;1193;108565;-77
2021/10/12 11:26:11;;;;;;;0.40;0.20;;;;;;;13.58;48.30;99987.02;111866;1194;107186;-77
2021/10/12 11:28:49;;;;;;;0.40;0.20;;;;;;;13.60;47.99;99982.47;111761;1193;138043;-77
2021/10/12 11:31:21;;;;;;;0.40;0.20;;;;;;;13.60;47.63;99981.38;111856;1193;93955;-76
2021/10/12 11:33:52;;;;;;;0.40;0.20;;;;;;;13.57;47.52;99979.02;111666;1193;137709;-78